NDF418S EHAM-EDDH
Flight info
| Callsign | NDF418S |
|---|---|
| Flight time | N/A |
| Altitude | 33000 |
| Route | EHAM/24 ANDIK M105 RIBSO RIBSO3P |
| Aircraft | A320/M-SDE3FGHIRWY/LB1 |
Departure
| Time | N/A |
|---|---|
| Airport | Amsterdam Airport Schiphol (EHAM) |
Arrival
| Time | 2026-05-03 20:31 |
|---|---|
| Airport | Hamburg Helmut Schmidt Airport (EDDH) |
| Time | Latitude | Longitude | Altitude | Speed | Heading |
|---|---|---|---|---|---|
| 2026-05-03 20:15 | 53.84400 | 9.59752 | 8982 ft | 341 kts | 81° |
| 2026-05-03 20:15 | 53.84869 | 9.63650 | 8588 ft | 335 kts | 81° |
| 2026-05-03 20:15 | 53.85328 | 9.67486 | 8205 ft | 330 kts | 81° |
| 2026-05-03 20:15 | 53.85779 | 9.71271 | 7825 ft | 325 kts | 82° |
| 2026-05-03 20:16 | 53.86222 | 9.74999 | 7453 ft | 321 kts | 82° |
| 2026-05-03 20:16 | 53.86633 | 9.78690 | 7081 ft | 315 kts | 87° |
| 2026-05-03 20:16 | 53.86589 | 9.82324 | 6719 ft | 305 kts | 101° |
| 2026-05-03 20:16 | 53.86336 | 9.85887 | 6352 ft | 301 kts | 101° |
| 2026-05-03 20:17 | 53.86089 | 9.89397 | 5971 ft | 298 kts | 102° |
| 2026-05-03 20:17 | 53.85844 | 9.92860 | 5584 ft | 294 kts | 102° |
| 2026-05-03 20:17 | 53.85601 | 9.96287 | 5205 ft | 291 kts | 101° |
| 2026-05-03 20:17 | 53.85361 | 9.99658 | 4831 ft | 288 kts | 101° |
| 2026-05-03 20:18 | 53.85120 | 10.03019 | 4451 ft | 284 kts | 101° |
| 2026-05-03 20:18 | 53.84887 | 10.06265 | 4071 ft | 270 kts | 101° |
| 2026-05-03 20:18 | 53.84673 | 10.09268 | 3994 ft | 254 kts | 101° |
| 2026-05-03 20:18 | 53.84457 | 10.12236 | 3998 ft | 253 kts | 101° |
| 2026-05-03 20:19 | 53.84242 | 10.15185 | 3998 ft | 252 kts | 101° |
| 2026-05-03 20:19 | 53.83988 | 10.18114 | 3997 ft | 250 kts | 104° |
| 2026-05-03 20:19 | 53.83714 | 10.20935 | 3992 ft | 234 kts | 104° |
| 2026-05-03 20:19 | 53.83516 | 10.23584 | 3996 ft | 221 kts | 92° |
| 2026-05-03 20:20 | 53.83606 | 10.26129 | 4016 ft | 213 kts | 96° |
| 2026-05-03 20:20 | 53.83170 | 10.28376 | 3838 ft | 193 kts | 134° |
| 2026-05-03 20:20 | 53.82265 | 10.29868 | 3715 ft | 173 kts | 155° |
| 2026-05-03 20:20 | 53.81224 | 10.30677 | 3523 ft | 160 kts | 174° |
| 2026-05-03 20:21 | 53.80160 | 10.30808 | 3243 ft | 148 kts | 205° |
| 2026-05-03 20:21 | 53.79457 | 10.29726 | 3054 ft | 140 kts | 250° |
| 2026-05-03 20:21 | 53.79562 | 10.28092 | 3005 ft | 151 kts | 297° |
| 2026-05-03 20:21 | 53.80467 | 10.27061 | 3007 ft | 171 kts | 340° |
| 2026-05-03 20:22 | 53.81680 | 10.27368 | 2997 ft | 188 kts | 26° |
| 2026-05-03 20:22 | 53.82545 | 10.29038 | 3000 ft | 194 kts | 71° |
| 2026-05-03 20:22 | 53.82594 | 10.31226 | 2994 ft | 184 kts | 117° |
| 2026-05-03 20:22 | 53.81863 | 10.32839 | 3005 ft | 168 kts | 157° |
| 2026-05-03 20:23 | 53.80823 | 10.33370 | 3003 ft | 154 kts | 189° |
| 2026-05-03 20:23 | 53.79841 | 10.32884 | 2999 ft | 145 kts | 218° |
| 2026-05-03 20:23 | 53.79137 | 10.31672 | 3012 ft | 151 kts | 233° |
| 2026-05-03 20:23 | 53.78486 | 10.30335 | 2999 ft | 146 kts | 233° |
| 2026-05-03 20:24 | 53.77843 | 10.29014 | 2998 ft | 144 kts | 233° |
| 2026-05-03 20:24 | 53.77206 | 10.27709 | 2999 ft | 143 kts | 232° |
| 2026-05-03 20:24 | 53.76576 | 10.26418 | 2999 ft | 142 kts | 232° |
| 2026-05-03 20:24 | 53.75944 | 10.25121 | 3001 ft | 143 kts | 232° |
| 2026-05-03 20:25 | 53.75329 | 10.23863 | 2982 ft | 131 kts | 232° |
| 2026-05-03 20:25 | 53.74769 | 10.22718 | 3014 ft | 124 kts | 232° |
| 2026-05-03 20:25 | 53.74235 | 10.21626 | 3012 ft | 119 kts | 233° |
| 2026-05-03 20:25 | 53.73709 | 10.20550 | 3001 ft | 117 kts | 233° |
| 2026-05-03 20:26 | 53.73192 | 10.19495 | 2926 ft | 116 kts | 232° |
| 2026-05-03 20:26 | 53.72686 | 10.18460 | 2809 ft | 115 kts | 232° |
| 2026-05-03 20:26 | 53.72176 | 10.17417 | 2677 ft | 116 kts | 232° |
| 2026-05-03 20:26 | 53.71659 | 10.16363 | 2534 ft | 117 kts | 232° |
| 2026-05-03 20:27 | 53.71141 | 10.15306 | 2381 ft | 117 kts | 233° |
| 2026-05-03 20:27 | 53.70619 | 10.14242 | 2226 ft | 118 kts | 233° |
| 2026-05-03 20:27 | 53.70098 | 10.13180 | 2071 ft | 117 kts | 233° |
| 2026-05-03 20:27 | 53.69579 | 10.12122 | 1914 ft | 116 kts | 234° |
| 2026-05-03 20:28 | 53.69062 | 10.11068 | 1750 ft | 117 kts | 233° |
| 2026-05-03 20:28 | 53.68544 | 10.10013 | 1604 ft | 116 kts | 232° |
| 2026-05-03 20:28 | 53.68029 | 10.08966 | 1440 ft | 117 kts | 231° |
| 2026-05-03 20:28 | 53.67505 | 10.07900 | 1284 ft | 119 kts | 232° |
| 2026-05-03 20:29 | 53.66976 | 10.06824 | 1120 ft | 119 kts | 233° |
| 2026-05-03 20:29 | 53.66449 | 10.05753 | 958 ft | 120 kts | 232° |
| 2026-05-03 20:29 | 53.65914 | 10.04664 | 817 ft | 122 kts | 232° |
| 2026-05-03 20:29 | 53.65370 | 10.03561 | 632 ft | 120 kts | 232° |
| 2026-05-03 20:30 | 53.64847 | 10.02504 | 473 ft | 120 kts | 233° |
| 2026-05-03 20:30 | 53.64308 | 10.01406 | 309 ft | 122 kts | 232° |
| 2026-05-03 20:30 | 53.63761 | 10.00292 | 154 ft | 122 kts | 230° |
| 2026-05-03 20:30 | 53.63222 | 9.99205 | 57 ft | 115 kts | 231° |
| 2026-05-03 20:31 | 53.62820 | 9.98388 | 53 ft | 52 kts | 230° |
| 2026-05-03 20:31 | 53.62650 | 9.98039 | 52 ft | 37 kts | 230° |
| 2026-05-03 20:31 | 53.62519 | 9.97799 | 51 ft | 23 kts | 206° |
| 2026-05-03 20:31 | 53.62427 | 9.97893 | 51 ft | 15 kts | 94° |
| 2026-05-03 20:32 | 53.62428 | 9.97920 | 51 ft | 0 kts | 85° |
| 2026-05-03 20:33 | 53.62429 | 9.97938 | 51 ft | 6 kts | 85° |
| 2026-05-03 20:33 | 53.62442 | 9.98075 | 51 ft | 14 kts | 78° |
| 2026-05-03 20:33 | 53.62461 | 9.98232 | 51 ft | 13 kts | 78° |
| 2026-05-03 20:33 | 53.62479 | 9.98379 | 51 ft | 12 kts | 78° |
| 2026-05-03 20:34 | 53.62495 | 9.98516 | 50 ft | 11 kts | 79° |
| 2026-05-03 20:34 | 53.62511 | 9.98659 | 51 ft | 13 kts | 79° |
| 2026-05-03 20:34 | 53.62530 | 9.98827 | 51 ft | 18 kts | 79° |
| 2026-05-03 20:34 | 53.62553 | 9.99035 | 51 ft | 18 kts | 79° |
| 2026-05-03 20:35 | 53.62575 | 9.99231 | 51 ft | 16 kts | 79° |
| 2026-05-03 20:35 | 53.62595 | 9.99414 | 50 ft | 15 kts | 79° |
| 2026-05-03 20:35 | 53.62616 | 9.99585 | 51 ft | 14 kts | 78° |
| 2026-05-03 20:35 | 53.62634 | 9.99743 | 52 ft | 13 kts | 78° |
| 2026-05-03 20:36 | 53.62682 | 9.99845 | 53 ft | 10 kts | 32° |
| 2026-05-03 20:36 | 53.62740 | 9.99902 | 54 ft | 9 kts | 30° |
| 2026-05-03 20:36 | 53.62775 | 9.99937 | 52 ft | 10 kts | 30° |
| 2026-05-03 20:36 | 53.62832 | 10.00018 | 52 ft | 12 kts | 71° |
| 2026-05-03 20:37 | 53.62788 | 10.00134 | 51 ft | 12 kts | 153° |
| 2026-05-03 20:37 | 53.62716 | 10.00197 | 51 ft | 8 kts | 141° |
| 2026-05-03 20:37 | 53.62725 | 10.00270 | 50 ft | 6 kts | 60° |
| 2026-05-03 20:37 | 53.62735 | 10.00299 | 51 ft | 0 kts | 61° |